sensor_id;sensor_type;location;lat;lon;timestamp;pressure;altitude;pressure_sealevel;temperature;humidity
6218;BME280;3142;48.206;11.550;2023-07-28T00:01:01;95165.44;;;19.09;66.33
6218;BME280;3142;48.206;11.550;2023-07-28T00:03:27;95171.00;;;19.13;65.58
6218;BME280;3142;48.206;11.550;2023-07-28T00:05:54;95171.53;;;19.15;65.95
6218;BME280;3142;48.206;11.550;2023-07-28T00:08:20;95168.59;;;19.16;65.77
6218;BME280;3142;48.206;11.550;2023-07-28T00:10:47;95166.47;;;19.18;65.25
6218;BME280;3142;48.206;11.550;2023-07-28T00:13:13;95160.66;;;19.16;65.51
6218;BME280;3142;48.206;11.550;2023-07-28T00:15:40;95158.28;;;19.20;65.49
6218;BME280;3142;48.206;11.550;2023-07-28T00:18:07;95153.22;;;19.23;65.71
6218;BME280;3142;48.206;11.550;2023-07-28T00:20:34;95159.84;;;19.26;65.67
6218;BME280;3142;48.206;11.550;2023-07-28T00:23:00;95148.16;;;19.27;65.42
6218;BME280;3142;48.206;11.550;2023-07-28T00:25:27;95149.75;;;19.28;65.43
6218;BME280;3142;48.206;11.550;2023-07-28T00:27:53;95147.09;;;19.28;65.28
6218;BME280;3142;48.206;11.550;2023-07-28T00:30:19;95144.44;;;19.28;65.13
6218;BME280;3142;48.206;11.550;2023-07-28T00:32:46;95137.28;;;19.29;64.87
6218;BME280;3142;48.206;11.550;2023-07-28T00:35:14;95136.50;;;19.28;65.28
6218;BME280;3142;48.206;11.550;2023-07-28T00:37:41;95144.19;;;19.24;65.13
6218;BME280;3142;48.206;11.550;2023-07-28T00:40:08;95144.19;;;19.24;64.62
6218;BME280;3142;48.206;11.550;2023-07-28T00:42:34;95143.69;;;19.22;64.57
6218;BME280;3142;48.206;11.550;2023-07-28T00:45:01;95139.44;;;19.16;65.07
6218;BME280;3142;48.206;11.550;2023-07-28T00:47:27;95142.09;;;19.11;65.45
6218;BME280;3142;48.206;11.550;2023-07-28T00:49:54;95131.50;;;19.06;65.54
6218;BME280;3142;48.206;11.550;2023-07-28T00:52:22;95141.03;;;19.02;65.64
6218;BME280;3142;48.206;11.550;2023-07-28T00:54:48;95139.72;;;19.00;65.82
6218;BME280;3142;48.206;11.550;2023-07-28T00:57:14;95142.38;;;18.94;65.98
6218;BME280;3142;48.206;11.550;2023-07-28T00:59:43;95144.50;;;18.92;66.54
6218;BME280;3142;48.206;11.550;2023-07-28T01:02:09;95142.34;;;18.89;67.06
6218;BME280;3142;48.206;11.550;2023-07-28T01:04:36;95134.69;;;18.83;66.86
6218;BME280;3142;48.206;11.550;2023-07-28T01:07:09;95132.31;;;18.81;67.46
6218;BME280;3142;48.206;11.550;2023-07-28T01:09:43;95136.53;;;18.77;68.02
6218;BME280;3142;48.206;11.550;2023-07-28T01:12:13;95138.41;;;18.67;67.66
6218;BME280;3142;48.206;11.550;2023-07-28T01:14:39;95143.91;;;18.60;68.24
6218;BME280;3142;48.206;11.550;2023-07-28T01:17:05;95146.53;;;18.45;68.96
6218;BME280;3142;48.206;11.550;2023-07-28T01:19:32;95146.81;;;18.43;68.74
6218;BME280;3142;48.206;11.550;2023-07-28T01:22:12;95148.13;;;18.41;68.97
6218;BME280;3142;48.206;11.550;2023-07-28T01:24:49;95152.59;;;18.35;68.67
6218;BME280;3142;48.206;11.550;2023-07-28T01:27:18;95156.31;;;18.34;69.02
6218;BME280;3142;48.206;11.550;2023-07-28T01:29:46;95145.72;;;18.34;69.25
6218;BME280;3142;48.206;11.550;2023-07-28T01:32:12;95143.88;;;18.34;68.27
6218;BME280;3142;48.206;11.550;2023-07-28T01:34:39;95138.03;;;18.32;68.30
6218;BME280;3142;48.206;11.550;2023-07-28T01:37:05;95140.94;;;18.31;68.38
6218;BME280;3142;48.206;11.550;2023-07-28T01:39:32;95142.00;;;18.30;68.83
6218;BME280;3142;48.206;11.550;2023-07-28T01:41:58;95133.28;;;18.24;68.33
6218;BME280;3142;48.206;11.550;2023-07-28T01:44:26;95139.09;;;18.26;68.22
6218;BME280;3142;48.206;11.550;2023-07-28T01:46:53;95146.78;;;18.23;68.28
6218;BME280;3142;48.206;11.550;2023-07-28T01:49:20;95141.97;;;18.20;68.30
6218;BME280;3142;48.206;11.550;2023-07-28T01:51:46;95137.47;;;18.15;67.74
6218;BME280;3142;48.206;11.550;2023-07-28T01:54:13;95128.72;;;18.10;67.72
6218;BME280;3142;48.206;11.550;2023-07-28T01:56:39;95131.09;;;18.06;67.81
6218;BME280;3142;48.206;11.550;2023-07-28T01:59:06;95135.06;;;18.03;67.29
6218;BME280;3142;48.206;11.550;2023-07-28T02:01:34;95132.94;;;18.00;67.63
6218;BME280;3142;48.206;11.550;2023-07-28T02:04:01;95136.59;;;17.94;67.70
6218;BME280;3142;48.206;11.550;2023-07-28T02:06:27;95141.38;;;17.92;67.26
6218;BME280;3142;48.206;11.550;2023-07-28T02:08:53;95140.84;;;17.90;67.65
6218;BME280;3142;48.206;11.550;2023-07-28T02:11:20;95137.91;;;17.92;66.97
6218;BME280;3142;48.206;11.550;2023-07-28T02:13:46;95138.97;;;17.86;66.87
6218;BME280;3142;48.206;11.550;2023-07-28T02:16:13;95136.84;;;17.88;67.04
6218;BME280;3142;48.206;11.550;2023-07-28T02:18:41;95143.47;;;17.90;66.35
6218;BME280;3142;48.206;11.550;2023-07-28T02:21:08;95140.31;;;17.93;66.32
6218;BME280;3142;48.206;11.550;2023-07-28T02:23:34;95140.31;;;17.93;66.74
6218;BME280;3142;48.206;11.550;2023-07-28T02:26:01;95144.06;;;17.97;66.44
6218;BME280;3142;48.206;11.550;2023-07-28T02:28:27;95138.44;;;17.94;66.90
6218;BME280;3142;48.206;11.550;2023-07-28T02:30:54;95143.75;;;17.94;66.48
6218;BME280;3142;48.206;11.550;2023-07-28T02:33:20;95147.44;;;17.93;66.71
6218;BME280;3142;48.206;11.550;2023-07-28T02:35:48;95142.69;;;17.90;66.71
6218;BME280;3142;48.206;11.550;2023-07-28T02:38:15;95133.41;;;17.92;66.96
6218;BME280;3142;48.206;11.550;2023-07-28T02:40:42;95138.44;;;17.89;67.02
6218;BME280;3142;48.206;11.550;2023-07-28T02:43:09;95136.59;;;17.84;67.36
6218;BME280;3142;48.206;11.550;2023-07-28T02:45:35;95137.38;;;17.85;66.76
6218;BME280;3142;48.206;11.550;2023-07-28T02:48:02;95142.94;;;17.88;67.46
6218;BME280;3142;48.206;11.550;2023-07-28T02:50:28;95139.25;;;17.89;67.13
6218;BME280;3142;48.206;11.550;2023-07-28T02:52:56;95139.25;;;17.89;67.70
6218;BME280;3142;48.206;11.550;2023-07-28T02:55:22;95137.13;;;17.91;67.24
6218;BME280;3142;48.206;11.550;2023-07-28T02:57:49;95134.47;;;17.86;67.20
6218;BME280;3142;48.206;11.550;2023-07-28T03:00:15;95133.41;;;17.87;67.13
6218;BME280;3142;48.206;11.550;2023-07-28T03:02:42;95126.00;;;17.84;67.71
6218;BME280;3142;48.206;11.550;2023-07-28T03:05:08;95125.22;;;17.84;68.19
6218;BME280;3142;48.206;11.550;2023-07-28T03:07:35;95129.13;;;17.81;67.96
6218;BME280;3142;48.206;11.550;2023-07-28T03:10:03;95120.66;;;17.79;68.30
6218;BME280;3142;48.206;11.550;2023-07-28T03:12:29;95126.75;;;17.80;67.89
6218;BME280;3142;48.206;11.550;2023-07-28T03:14:55;95128.88;;;17.77;68.19
6218;BME280;3142;48.206;11.550;2023-07-28T03:17:22;95125.16;;;17.79;68.06
6218;BME280;3142;48.206;11.550;2023-07-28T03:19:50;95131.53;;;17.77;68.14
6218;BME280;3142;48.206;11.550;2023-07-28T03:22:16;95135.75;;;17.79;68.57
6218;BME280;3142;48.206;11.550;2023-07-28T03:24:42;95129.66;;;17.78;68.50
6218;BME280;3142;48.206;11.550;2023-07-28T03:27:12;95132.06;;;17.80;68.13
6218;BME280;3142;48.206;11.550;2023-07-28T03:29:39;95133.91;;;17.79;68.04
6218;BME280;3142;48.206;11.550;2023-07-28T03:32:06;95135.72;;;17.68;68.16
6218;BME280;3142;48.206;11.550;2023-07-28T03:34:32;95140.41;;;17.61;68.89
6218;BME280;3142;48.206;11.550;2023-07-28T03:36:58;95140.66;;;17.55;68.61
6218;BME280;3142;48.206;11.550;2023-07-28T03:39:25;95143.53;;;17.53;69.15
6218;BME280;3142;48.206;11.550;2023-07-28T03:41:51;95139.28;;;17.47;68.92
6218;BME280;3142;48.206;11.550;2023-07-28T03:44:19;95144.59;;;17.52;68.56
6218;BME280;3142;48.206;11.550;2023-07-28T03:46:46;95139.81;;;17.49;68.94
6218;BME280;3142;48.206;11.550;2023-07-28T03:49:12;95142.22;;;17.51;68.73
6218;BME280;3142;48.206;11.550;2023-07-28T03:51:39;95135.13;;;17.56;68.76
6218;BME280;3142;48.206;11.550;2023-07-28T03:54:05;95137.19;;;17.54;69.09
6218;BME280;3142;48.206;11.550;2023-07-28T03:56:32;95135.91;;;17.57;68.89
6218;BME280;3142;48.206;11.550;2023-07-28T03:58:58;95140.16;;;17.63;68.92
6218;BME280;3142;48.206;11.550;2023-07-28T04:01:26;95135.66;;;17.63;69.14
6218;BME280;3142;48.206;11.550;2023-07-28T04:03:52;95136.19;;;17.65;68.58
6218;BME280;3142;48.206;11.550;2023-07-28T04:06:19;95142.28;;;17.66;68.75
6218;BME280;3142;48.206;11.550;2023-07-28T04:08:45;95129.06;;;17.66;68.89
6218;BME280;3142;48.206;11.550;2023-07-28T04:11:12;95135.47;;;17.70;68.56
6218;BME280;3142;48.206;11.550;2023-07-28T04:13:38;95132.03;;;17.69;68.94
6218;BME280;3142;48.206;11.550;2023-07-28T04:16:05;95132.03;;;17.74;69.04
6218;BME280;3142;48.206;11.550;2023-07-28T04:18:32;95143.16;;;17.82;68.73
6218;BME280;3142;48.206;11.550;2023-07-28T04:20:59;95142.38;;;17.81;68.95
6218;BME280;3142;48.206;11.550;2023-07-28T04:23:25;95144.53;;;17.84;68.65
6218;BME280;3142;48.206;11.550;2023-07-28T04:25:52;95142.16;;;17.93;68.33
6218;BME280;3142;48.206;11.550;2023-07-28T04:28:18;95141.41;;;17.97;68.34
6218;BME280;3142;48.206;11.550;2023-07-28T04:30:45;95137.44;;;18.00;68.37
6218;BME280;3142;48.206;11.550;2023-07-28T04:33:11;95139.81;;;18.06;68.24
6218;BME280;3142;48.206;11.550;2023-07-28T04:35:39;95145.91;;;18.07;68.73
6218;BME280;3142;48.206;11.550;2023-07-28T04:38:05;95152.25;;;18.06;68.60
6218;BME280;3142;48.206;11.550;2023-07-28T04:40:32;95148.81;;;18.05;68.68
6218;BME280;3142;48.206;11.550;2023-07-28T04:42:58;95150.19;;;18.13;68.33
6218;BME280;3142;48.206;11.550;2023-07-28T04:45:25;95145.69;;;18.14;68.67
6218;BME280;3142;48.206;11.550;2023-07-28T04:47:51;95153.88;;;18.12;68.37
6218;BME280;3142;48.206;11.550;2023-07-28T04:50:18;95157.88;;;18.15;68.41
6218;BME280;3142;48.206;11.550;2023-07-28T04:52:46;95155.47;;;18.13;68.26
6218;BME280;3142;48.206;11.550;2023-07-28T04:55:12;95152.84;;;18.18;68.48
6218;BME280;3142;48.206;11.550;2023-07-28T04:57:38;95157.91;;;18.25;68.79
6218;BME280;3142;48.206;11.550;2023-07-28T05:00:06;95158.44;;;18.27;68.50
6218;BME280;3142;48.206;11.550;2023-07-28T05:02:33;95163.47;;;18.28;68.26
6218;BME280;3142;48.206;11.550;2023-07-28T05:05:00;95171.69;;;18.27;68.68
6218;BME280;3142;48.206;11.550;2023-07-28T05:07:26;95177.25;;;18.30;68.32
6218;BME280;3142;48.206;11.550;2023-07-28T05:09:55;95174.31;;;18.32;68.44
6218;BME280;3142;48.206;11.550;2023-07-28T05:12:21;95177.78;;;18.32;68.44
6218;BME280;3142;48.206;11.550;2023-07-28T05:14:48;95172.47;;;18.32;69.03
6218;BME280;3142;48.206;11.550;2023-07-28T05:17:14;95179.38;;;18.39;68.88
6218;BME280;3142;48.206;11.550;2023-07-28T05:19:41;95175.41;;;18.41;68.82
6218;BME280;3142;48.206;11.550;2023-07-28T05:22:07;95174.63;;;18.46;69.62
6218;BME280;3142;48.206;11.550;2023-07-28T05:24:34;95179.94;;;18.56;68.74
6218;BME280;3142;48.206;11.550;2023-07-28T05:27:02;95183.72;;;18.65;68.95
6218;BME280;3142;48.206;11.550;2023-07-28T05:29:28;95183.72;;;18.70;69.04
6218;BME280;3142;48.206;11.550;2023-07-28T05:31:54;95186.88;;;18.72;69.18
6218;BME280;3142;48.206;11.550;2023-07-28T05:34:21;95182.13;;;18.74;69.07
6218;BME280;3142;48.206;11.550;2023-07-28T05:36:47;95187.72;;;18.78;69.62
6218;BME280;3142;48.206;11.550;2023-07-28T05:39:14;95191.16;;;18.83;69.00
6218;BME280;3142;48.206;11.550;2023-07-28T05:41:40;95193.53;;;18.90;68.80
6218;BME280;3142;48.206;11.550;2023-07-28T05:44:08;95202.03;;;18.97;69.03
6218;BME280;3142;48.206;11.550;2023-07-28T05:46:34;95204.41;;;19.04;68.66
6218;BME280;3142;48.206;11.550;2023-07-28T05:49:01;95200.19;;;19.08;69.18
6218;BME280;3142;48.206;11.550;2023-07-28T05:51:27;95190.09;;;19.10;68.56
6218;BME280;3142;48.206;11.550;2023-07-28T05:53:54;95201.22;;;19.17;68.84
6218;BME280;3142;48.206;11.550;2023-07-28T05:56:20;95203.88;;;19.22;68.84
6218;BME280;3142;48.206;11.550;2023-07-28T05:58:47;95199.91;;;19.24;68.94
6218;BME280;3142;48.206;11.550;2023-07-28T06:01:15;95200.69;;;19.30;68.70
6218;BME280;3142;48.206;11.550;2023-07-28T06:03:42;95211.03;;;19.42;68.79
6218;BME280;3142;48.206;11.550;2023-07-28T06:06:08;95211.53;;;19.54;68.87
6218;BME280;3142;48.206;11.550;2023-07-28T06:08:35;95218.72;;;19.59;68.77
6218;BME280;3142;48.206;11.550;2023-07-28T06:11:03;95216.63;;;19.61;68.35
6218;BME280;3142;48.206;11.550;2023-07-28T06:13:29;95217.41;;;19.61;69.18
6218;BME280;3142;48.206;11.550;2023-07-28T06:15:56;95225.91;;;19.63;68.74
6218;BME280;3142;48.206;11.550;2023-07-28T06:18:25;95228.00;;;19.71;68.72
6218;BME280;3142;48.206;11.550;2023-07-28T06:20:51;95233.56;;;19.80;68.49
6218;BME280;3142;48.206;11.550;2023-07-28T06:23:18;95225.84;;;19.89;68.87
6218;BME280;3142;48.206;11.550;2023-07-28T06:25:44;95239.38;;;20.02;68.60
6218;BME280;3142;48.206;11.550;2023-07-28T06:28:11;95236.41;;;20.09;67.77
6218;BME280;3142;48.206;11.550;2023-07-28T06:30:38;95234.50;;;20.15;66.76
6218;BME280;3142;48.206;11.550;2023-07-28T06:33:05;95242.75;;;20.13;66.99
6218;BME280;3142;48.206;11.550;2023-07-28T06:35:33;95239.03;;;20.14;67.50
6218;BME280;3142;48.206;11.550;2023-07-28T06:38:00;95240.66;;;20.15;67.23
6218;BME280;3142;48.206;11.550;2023-07-28T06:40:27;95248.34;;;20.17;67.07
6218;BME280;3142;48.206;11.550;2023-07-28T06:42:54;95242.19;;;20.26;66.56
6218;BME280;3142;48.206;11.550;2023-07-28T06:45:21;95259.19;;;20.30;65.99
6218;BME280;3142;48.206;11.550;2023-07-28T06:47:47;95254.41;;;20.32;65.47
6218;BME280;3142;48.206;11.550;2023-07-28T06:50:14;95248.50;;;20.40;65.37
6218;BME280;3142;48.206;11.550;2023-07-28T06:52:42;95252.78;;;20.36;65.13
6218;BME280;3142;48.206;11.550;2023-07-28T06:55:08;95253.59;;;20.32;65.18
6218;BME280;3142;48.206;11.550;2023-07-28T06:57:35;95249.09;;;20.32;64.95
6218;BME280;3142;48.206;11.550;2023-07-28T07:00:01;95248.25;;;20.37;64.81
6218;BME280;3142;48.206;11.550;2023-07-28T07:02:28;95249.03;;;20.48;64.83
6218;BME280;3142;48.206;11.550;2023-07-28T07:04:55;95260.16;;;20.55;64.91
6218;BME280;3142;48.206;11.550;2023-07-28T07:07:21;95255.59;;;20.65;64.13
6218;BME280;3142;48.206;11.550;2023-07-28T07:09:49;95259.03;;;20.71;63.75
6218;BME280;3142;48.206;11.550;2023-07-28T07:12:15;95260.03;;;20.80;63.74
6218;BME280;3142;48.206;11.550;2023-07-28T07:14:42;95258.91;;;20.91;63.13
6218;BME280;3142;48.206;11.550;2023-07-28T07:17:09;95254.59;;;21.00;63.11
6218;BME280;3142;48.206;11.550;2023-07-28T07:19:36;95250.81;;;21.07;63.11
6218;BME280;3142;48.206;11.550;2023-07-28T07:22:02;95253.22;;;21.08;63.32
6218;BME280;3142;48.206;11.550;2023-07-28T07:24:29;95240.13;;;21.17;63.09
6218;BME280;3142;48.206;11.550;2023-07-28T07:26:57;95249.41;;;21.19;63.10
6218;BME280;3142;48.206;11.550;2023-07-28T07:29:23;95255.78;;;21.28;63.21
6218;BME280;3142;48.206;11.550;2023-07-28T07:31:50;95252.03;;;21.29;62.70
6218;BME280;3142;48.206;11.550;2023-07-28T07:34:20;95245.00;;;21.44;62.68
6218;BME280;3142;48.206;11.550;2023-07-28T07:36:47;95251.84;;;21.50;62.20
6218;BME280;3142;48.206;11.550;2023-07-28T07:39:13;95249.88;;;21.66;61.73
6218;BME280;3142;48.206;11.550;2023-07-28T07:41:39;95253.28;;;21.71;61.68
6218;BME280;3142;48.206;11.550;2023-07-28T07:44:07;95246.34;;;21.70;61.31
6218;BME280;3142;48.206;11.550;2023-07-28T07:46:34;95261.03;;;21.68;61.16
6218;BME280;3142;48.206;11.550;2023-07-28T07:49:00;95247.88;;;21.76;61.21
6218;BME280;3142;48.206;11.550;2023-07-28T07:51:30;95254.25;;;21.80;60.95
6218;BME280;3142;48.206;11.550;2023-07-28T07:53:58;95272.69;;;22.01;60.62
6218;BME280;3142;48.206;11.550;2023-07-28T07:56:25;95259.53;;;22.14;59.83
6218;BME280;3142;48.206;11.550;2023-07-28T07:58:51;95258.00;;;22.08;59.69
6218;BME280;3142;48.206;11.550;2023-07-28T08:01:19;95261.09;;;22.39;58.99
6218;BME280;3142;48.206;11.550;2023-07-28T08:03:45;95259.75;;;22.61;57.91
6218;BME280;3142;48.206;11.550;2023-07-28T08:06:12;95258.41;;;22.63;58.22
6218;BME280;3142;48.206;11.550;2023-07-28T08:08:38;95258.75;;;22.99;55.34
6218;BME280;3142;48.206;11.550;2023-07-28T08:11:05;95258.56;;;23.28;54.78
6218;BME280;3142;48.206;11.550;2023-07-28T08:13:32;95264.91;;;23.51;54.63
6218;BME280;3142;48.206;11.550;2023-07-28T08:15:59;95267.84;;;23.69;53.96
6218;BME280;3142;48.206;11.550;2023-07-28T08:18:27;95256.31;;;23.87;53.01
6218;BME280;3142;48.206;11.550;2023-07-28T08:20:53;95263.97;;;24.21;52.56
6218;BME280;3142;48.206;11.550;2023-07-28T08:23:19;95277.97;;;24.45;51.53
6218;BME280;3142;48.206;11.550;2023-07-28T08:25:46;95270.81;;;24.13;52.45
6218;BME280;3142;48.206;11.550;2023-07-28T08:28:13;95273.91;;;24.62;51.18
6218;BME280;3142;48.206;11.550;2023-07-28T08:30:39;95272.44;;;25.05;50.86
6218;BME280;3142;48.206;11.550;2023-07-28T08:33:06;95269.16;;;25.45;50.14
6218;BME280;3142;48.206;11.550;2023-07-28T08:35:34;95269.69;;;25.55;49.48
6218;BME280;3142;48.206;11.550;2023-07-28T08:38:00;95267.16;;;25.50;49.49
6218;BME280;3142;48.206;11.550;2023-07-28T08:40:26;95264.09;;;25.65;49.21
6218;BME280;3142;48.206;11.550;2023-07-28T08:42:53;95284.03;;;25.73;49.08
6218;BME280;3142;48.206;11.550;2023-07-28T08:45:20;95267.38;;;25.85;48.67
6218;BME280;3142;48.206;11.550;2023-07-28T08:47:48;95274.16;;;26.13;48.33
6218;BME280;3142;48.206;11.550;2023-07-28T08:50:15;95266.09;;;26.13;48.52
6218;BME280;3142;48.206;11.550;2023-07-28T08:52:44;95266.00;;;26.18;48.51
6218;BME280;3142;48.206;11.550;2023-07-28T08:55:10;95268.09;;;25.99;49.14
6218;BME280;3142;48.206;11.550;2023-07-28T08:57:38;95273.72;;;25.89;49.39
6218;BME280;3142;48.206;11.550;2023-07-28T09:00:08;95269.41;;;25.79;49.20
6218;BME280;3142;48.206;11.550;2023-07-28T09:02:36;95259.34;;;25.40;49.82
6218;BME280;3142;48.206;11.550;2023-07-28T09:05:03;95270.56;;;25.06;50.74
6218;BME280;3142;48.206;11.550;2023-07-28T09:07:34;95275.88;;;24.84;50.89
6218;BME280;3142;48.206;11.550;2023-07-28T09:10:02;95276.56;;;24.62;51.51
6218;BME280;3142;48.206;11.550;2023-07-28T09:12:31;95278.34;;;24.39;52.31
6218;BME280;3142;48.206;11.550;2023-07-28T09:14:57;95284.06;;;24.18;52.67
6218;BME280;3142;48.206;11.550;2023-07-28T09:17:24;95292.69;;;24.02;52.82
6218;BME280;3142;48.206;11.550;2023-07-28T09:19:51;95287.81;;;23.90;53.09
6218;BME280;3142;48.206;11.550;2023-07-28T09:22:18;95290.03;;;23.83;53.80
6218;BME280;3142;48.206;11.550;2023-07-28T09:24:45;95283.50;;;23.75;54.14
6218;BME280;3142;48.206;11.550;2023-07-28T09:27:20;95281.94;;;23.74;54.90
6218;BME280;3142;48.206;11.550;2023-07-28T09:29:48;95275.84;;;23.69;53.71
6218;BME280;3142;48.206;11.550;2023-07-28T09:32:15;95278.53;;;23.69;53.49
6218;BME280;3142;48.206;11.550;2023-07-28T09:34:43;95274.78;;;23.70;53.70
6218;BME280;3142;48.206;11.550;2023-07-28T09:37:10;95280.75;;;23.80;53.09
6218;BME280;3142;48.206;11.550;2023-07-28T09:39:36;95280.94;;;23.84;53.32
6218;BME280;3142;48.206;11.550;2023-07-28T09:42:06;95285.75;;;24.01;52.99
6218;BME280;3142;48.206;11.550;2023-07-28T09:44:36;95285.16;;;24.17;52.51
6218;BME280;3142;48.206;11.550;2023-07-28T09:47:03;95282.84;;;24.30;52.03
6218;BME280;3142;48.206;11.550;2023-07-28T09:49:35;95282.38;;;24.91;51.11
6218;BME280;3142;48.206;11.550;2023-07-28T09:52:04;95281.94;;;25.25;49.70
6218;BME280;3142;48.206;11.550;2023-07-28T09:54:34;95277.06;;;25.27;49.67
6218;BME280;3142;48.206;11.550;2023-07-28T09:57:03;95275.09;;;25.19;49.86
6218;BME280;3142;48.206;11.550;2023-07-28T09:59:32;95277.09;;;25.14;49.31
6218;BME280;3142;48.206;11.550;2023-07-28T10:02:02;95270.59;;;25.28;49.15
6218;BME280;3142;48.206;11.550;2023-07-28T10:04:29;95269.88;;;25.14;49.92
6218;BME280;3142;48.206;11.550;2023-07-28T10:06:56;95268.38;;;24.94;49.94
6218;BME280;3142;48.206;11.550;2023-07-28T10:09:24;95267.34;;;24.81;50.47
6218;BME280;3142;48.206;11.550;2023-07-28T10:11:50;95257.53;;;24.77;50.80
6218;BME280;3142;48.206;11.550;2023-07-28T10:14:25;95271.03;;;24.72;51.24
6218;BME280;3142;48.206;11.550;2023-07-28T10:16:52;95273.38;;;24.73;50.71
6218;BME280;3142;48.206;11.550;2023-07-28T10:19:20;95270.63;;;24.65;50.69
6218;BME280;3142;48.206;11.550;2023-07-28T10:21:47;95274.19;;;24.60;50.80
6218;BME280;3142;48.206;11.550;2023-07-28T10:24:13;95270.72;;;24.60;51.00
6218;BME280;3142;48.206;11.550;2023-07-28T10:26:41;95279.97;;;24.54;51.14
6218;BME280;3142;48.206;11.550;2023-07-28T10:29:08;95283.50;;;24.49;50.43
6218;BME280;3142;48.206;11.550;2023-07-28T10:31:36;95270.84;;;24.41;50.01
6218;BME280;3142;48.206;11.550;2023-07-28T10:34:02;95268.75;;;24.38;50.74
6218;BME280;3142;48.206;11.550;2023-07-28T10:36:34;95282.66;;;24.40;51.32
6218;BME280;3142;48.206;11.550;2023-07-28T10:39:14;95270.13;;;24.49;51.13
6218;BME280;3142;48.206;11.550;2023-07-28T10:42:00;95277.66;;;24.47;51.04
6218;BME280;3142;48.206;11.550;2023-07-28T10:44:27;95282.66;;;24.40;51.42
6218;BME280;3142;48.206;11.550;2023-07-28T10:46:54;95291.66;;;24.44;51.84
6218;BME280;3142;48.206;11.550;2023-07-28T10:49:21;95287.69;;;24.41;51.82
6218;BME280;3142;48.206;11.550;2023-07-28T10:51:48;95292.75;;;24.43;52.32
6218;BME280;3142;48.206;11.550;2023-07-28T10:54:15;95280.25;;;24.52;51.93
6218;BME280;3142;48.206;11.550;2023-07-28T10:56:45;95300.66;;;24.62;51.33
6218;BME280;3142;48.206;11.550;2023-07-28T10:59:11;95309.56;;;24.71;51.21
6218;BME280;3142;48.206;11.550;2023-07-28T11:01:39;95294.91;;;24.82;50.10
6218;BME280;3142;48.206;11.550;2023-07-28T11:04:08;95291.91;;;24.97;49.83
6218;BME280;3142;48.206;11.550;2023-07-28T11:06:35;95294.63;;;25.20;49.39
6218;BME280;3142;48.206;11.550;2023-07-28T11:09:05;95290.88;;;25.43;48.56
6218;BME280;3142;48.206;11.550;2023-07-28T11:11:31;95283.16;;;25.42;48.65
6218;BME280;3142;48.206;11.550;2023-07-28T11:13:59;95297.13;;;25.52;46.57
6218;BME280;3142;48.206;11.550;2023-07-28T11:16:26;95289.78;;;25.44;47.10
6218;BME280;3142;48.206;11.550;2023-07-28T11:18:55;95284.47;;;25.30;46.93
6218;BME280;3142;48.206;11.550;2023-07-28T11:21:23;95286.88;;;25.54;47.48
6218;BME280;3142;48.206;11.550;2023-07-28T11:23:50;95301.19;;;25.50;47.75
6218;BME280;3142;48.206;11.550;2023-07-28T11:26:18;95294.19;;;25.40;47.13
6218;BME280;3142;48.206;11.550;2023-07-28T11:28:45;95294.22;;;25.26;47.69
6218;BME280;3142;48.206;11.550;2023-07-28T11:31:12;95290.31;;;25.10;48.36
6218;BME280;3142;48.206;11.550;2023-07-28T11:33:39;95288.91;;;24.99;49.04
6218;BME280;3142;48.206;11.550;2023-07-28T11:36:05;95290.81;;;24.98;48.71
6218;BME280;3142;48.206;11.550;2023-07-28T11:38:32;95294.00;;;24.87;49.32
6218;BME280;3142;48.206;11.550;2023-07-28T11:41:00;95294.59;;;24.84;48.84
6218;BME280;3142;48.206;11.550;2023-07-28T11:43:30;95295.91;;;24.72;49.49
6218;BME280;3142;48.206;11.550;2023-07-28T11:45:58;95301.25;;;24.59;49.36
6218;BME280;3142;48.206;11.550;2023-07-28T11:48:29;95298.69;;;24.54;49.46
6218;BME280;3142;48.206;11.550;2023-07-28T11:50:56;95307.00;;;24.52;49.80
6218;BME280;3142;48.206;11.550;2023-07-28T11:53:22;95290.16;;;24.51;49.93
6218;BME280;3142;48.206;11.550;2023-07-28T11:55:50;95297.69;;;24.49;50.31
6218;BME280;3142;48.206;11.550;2023-07-28T11:58:17;95308.38;;;24.49;50.40
6218;BME280;3142;48.206;11.550;2023-07-28T12:00:47;95301.44;;;24.48;50.24
6218;BME280;3142;48.206;11.550;2023-07-28T12:03:13;95295.13;;;24.58;50.13
6218;BME280;3142;48.206;11.550;2023-07-28T12:05:41;95295.56;;;24.88;50.12
6218;BME280;3142;48.206;11.550;2023-07-28T12:08:08;95283.91;;;25.20;49.13
6218;BME280;3142;48.206;11.550;2023-07-28T12:10:35;95285.44;;;25.34;48.45
6218;BME280;3142;48.206;11.550;2023-07-28T12:13:06;95288.88;;;25.49;48.73
6218;BME280;3142;48.206;11.550;2023-07-28T12:15:33;95280.34;;;25.47;48.39
6218;BME280;3142;48.206;11.550;2023-07-28T12:18:03;95281.06;;;25.61;48.67
6218;BME280;3142;48.206;11.550;2023-07-28T12:20:33;95271.94;;;25.62;48.19
6218;BME280;3142;48.206;11.550;2023-07-28T12:23:00;95280.91;;;25.57;47.29
6218;BME280;3142;48.206;11.550;2023-07-28T12:25:26;95282.25;;;25.46;47.51
6218;BME280;3142;48.206;11.550;2023-07-28T12:27:52;95290.03;;;25.34;48.22
6218;BME280;3142;48.206;11.550;2023-07-28T12:30:19;95289.75;;;25.22;48.65
6218;BME280;3142;48.206;11.550;2023-07-28T12:32:45;95286.94;;;25.04;49.00
6218;BME280;3142;48.206;11.550;2023-07-28T12:35:13;95293.09;;;24.91;49.39
6218;BME280;3142;48.206;11.550;2023-07-28T12:37:40;95297.66;;;24.77;50.23
6218;BME280;3142;48.206;11.550;2023-07-28T12:40:08;95292.03;;;24.65;50.42
6218;BME280;3142;48.206;11.550;2023-07-28T12:42:35;95296.41;;;24.61;50.56
6218;BME280;3142;48.206;11.550;2023-07-28T12:45:02;95290.72;;;24.76;50.53
6218;BME280;3142;48.206;11.550;2023-07-28T12:47:30;95292.19;;;24.96;50.40
6218;BME280;3142;48.206;11.550;2023-07-28T12:49:57;95292.91;;;25.01;50.53
6218;BME280;3142;48.206;11.550;2023-07-28T12:52:24;95290.72;;;25.03;50.59
6218;BME280;3142;48.206;11.550;2023-07-28T12:54:51;95292.91;;;25.01;50.73
6218;BME280;3142;48.206;11.550;2023-07-28T12:57:17;95292.09;;;25.01;51.20
6218;BME280;3142;48.206;11.550;2023-07-28T12:59:44;95289.63;;;25.04;50.91
6218;BME280;3142;48.206;11.550;2023-07-28T13:02:10;95279.22;;;25.03;50.84
6218;BME280;3142;48.206;11.550;2023-07-28T13:04:37;95281.41;;;25.01;50.96
6218;BME280;3142;48.206;11.550;2023-07-28T13:07:04;95278.81;;;24.96;51.38
6218;BME280;3142;48.206;11.550;2023-07-28T13:09:32;95286.84;;;24.96;51.59